createdAt,value
2023-05-24T00:00:35.519Z,73.58
2023-05-24T00:04:19.907Z,73.45
2023-05-24T00:08:02.696Z,73.27
2023-05-24T00:11:45.415Z,73.48
2023-05-24T00:15:28.216Z,73.86
2023-05-24T00:19:11.865Z,73.77
2023-05-24T00:22:55.994Z,73.94
2023-05-24T00:26:38.755Z,73.64
2023-05-24T00:30:21.460Z,73.77
2023-05-24T00:34:04.428Z,73.40
2023-05-24T00:37:48.174Z,73.79
2023-05-24T00:41:32.294Z,73.33
2023-05-24T00:45:15.356Z,74.01
2023-05-24T00:48:58.310Z,73.91
2023-05-24T00:52:42.067Z,74.20
2023-05-24T00:56:24.981Z,74.60
2023-05-24T01:00:11.245Z,74.85
2023-05-24T01:03:54.386Z,75.08
2023-05-24T01:07:44.445Z,75.04
2023-05-24T01:11:31.972Z,75.51
2023-05-24T01:15:23.531Z,75.68
2023-05-24T01:19:25.901Z,75.63
2023-05-24T01:23:16.719Z,75.89
2023-05-24T01:27:10.182Z,76.03
2023-05-24T01:30:52.969Z,75.92
2023-05-24T01:34:35.772Z,75.32
2023-05-24T01:38:18.451Z,75.33
2023-05-24T01:42:08.860Z,75.49
2023-05-24T01:46:01.295Z,76.06
2023-05-24T01:49:49.238Z,75.45
2023-05-24T01:53:34.926Z,75.49
2023-05-24T01:57:19.722Z,75.79
2023-05-24T02:01:03.939Z,75.99
2023-05-24T02:04:47.021Z,75.04
2023-05-24T02:08:29.768Z,75.39
2023-05-24T02:12:13.197Z,75.86
2023-05-24T02:15:55.984Z,75.30
2023-05-24T02:19:40.118Z,74.65
2023-05-24T02:23:22.829Z,74.97
2023-05-24T02:27:05.897Z,75.25
2023-05-24T02:30:48.656Z,75.74
2023-05-24T02:34:35.651Z,76.11
2023-05-24T02:38:19.761Z,75.80
2023-05-24T02:42:04.700Z,75.23
2023-05-24T02:45:47.687Z,75.35
2023-05-24T02:49:30.511Z,74.55
2023-05-24T02:53:13.295Z,75.33
2023-05-24T02:56:58.022Z,74.59
2023-05-24T03:00:41.090Z,74.61
2023-05-24T03:04:23.865Z,75.09
2023-05-24T03:08:07.412Z,75.47
2023-05-24T03:11:50.175Z,76.20
2023-05-24T03:15:34.274Z,76.66
2023-05-24T03:19:18.036Z,76.67
2023-05-24T03:23:00.758Z,77.32
2023-05-24T03:26:43.587Z,77.95
2023-05-24T03:30:26.357Z,78.08
2023-05-24T03:34:10.412Z,78.66
2023-05-24T03:37:53.183Z,78.30
2023-05-24T03:41:35.955Z,78.14
2023-05-24T03:45:26.933Z,77.62
2023-05-24T03:49:14.959Z,77.96
2023-05-24T03:52:57.677Z,77.25
2023-05-24T03:56:40.414Z,77.90
2023-05-24T04:00:23.425Z,78.42
2023-05-24T04:04:06.412Z,77.39
2023-05-24T04:07:50.926Z,78.29
2023-05-24T04:11:33.778Z,77.71
2023-05-24T04:15:16.612Z,76.39
2023-05-24T04:19:01.080Z,76.51
2023-05-24T04:22:43.864Z,76.06
2023-05-24T04:26:28.259Z,76.59
2023-05-24T04:30:11.421Z,76.88
2023-05-24T04:33:54.227Z,76.47
2023-05-24T04:37:36.934Z,77.01
2023-05-24T04:41:19.673Z,76.66
2023-05-24T04:45:03.923Z,77.93
2023-05-24T04:48:46.680Z,76.18
2023-05-24T04:52:30.506Z,75.95
2023-05-24T04:56:14.960Z,75.12
2023-05-24T04:59:57.638Z,74.90
2023-05-24T05:03:41.992Z,73.00
2023-05-24T05:07:24.774Z,72.75
2023-05-24T05:11:07.691Z,73.12
2023-05-24T05:14:50.642Z,73.68
2023-05-24T05:18:33.912Z,72.93
2023-05-24T05:22:18.080Z,71.78
2023-05-24T05:26:00.822Z,70.92
2023-05-24T05:29:44.114Z,72.00
2023-05-24T05:33:27.196Z,71.95
2023-05-24T05:37:10.228Z,70.25
2023-05-24T05:40:54.376Z,69.53
2023-05-24T05:44:37.409Z,69.45
2023-05-24T05:48:20.484Z,68.50
2023-05-24T05:52:03.373Z,67.88
2023-05-24T05:55:46.124Z,68.60
2023-05-24T05:59:30.217Z,70.17
2023-05-24T06:03:13.202Z,68.79
2023-05-24T06:06:56.972Z,68.77
2023-05-24T06:10:39.710Z,69.37
2023-05-24T06:14:25.079Z,69.81
2023-05-24T06:18:09.361Z,69.97
2023-05-24T06:21:52.184Z,68.73
2023-05-24T06:25:35.112Z,68.49
2023-05-24T06:29:20.162Z,67.38
2023-05-24T06:33:03.336Z,66.09
2023-05-24T06:36:48.507Z,66.62
2023-05-24T06:40:31.287Z,66.69
2023-05-24T06:44:14.140Z,66.64
2023-05-24T06:47:57.068Z,64.94
2023-05-24T06:51:39.793Z,64.50
2023-05-24T06:55:24.184Z,64.26
2023-05-24T06:59:08.736Z,64.01
2023-05-24T07:02:51.556Z,64.51
2023-05-24T07:06:34.342Z,64.14
2023-05-24T07:10:17.117Z,63.24
2023-05-24T07:14:01.159Z,63.09
2023-05-24T07:17:43.981Z,62.22
2023-05-24T07:21:26.772Z,63.02
2023-05-24T07:25:10.504Z,63.22
2023-05-24T07:28:53.293Z,63.88
2023-05-24T07:32:37.563Z,64.71
2023-05-24T07:36:21.477Z,64.26
2023-05-24T07:40:05.499Z,65.01
2023-05-24T07:43:48.251Z,65.15
2023-05-24T07:47:31.086Z,64.56
2023-05-24T07:51:15.581Z,64.03
2023-05-24T07:54:58.311Z,63.99
2023-05-24T07:58:41.998Z,63.27
2023-05-24T08:02:24.926Z,62.88
2023-05-24T08:06:07.893Z,62.61
2023-05-24T08:09:52.014Z,63.47
2023-05-24T08:13:37.840Z,61.12
2023-05-24T08:17:20.782Z,61.84
2023-05-24T08:21:03.712Z,60.84
2023-05-24T08:24:46.551Z,61.06
2023-05-24T08:28:30.982Z,62.03
2023-05-24T08:32:13.762Z,60.60
2023-05-24T08:35:56.649Z,61.62
2023-05-24T08:39:39.425Z,60.60
2023-05-24T08:43:22.690Z,61.90
2023-05-24T08:47:07.135Z,62.33
2023-05-24T08:50:50.528Z,61.56
2023-05-24T08:54:33.952Z,62.65
2023-05-24T08:58:17.341Z,61.30
2023-05-24T09:02:01.250Z,62.16
2023-05-24T09:05:46.392Z,63.74
2023-05-24T09:09:29.960Z,64.45
2023-05-24T09:13:13.596Z,62.76
2023-05-24T09:16:56.924Z,62.92
2023-05-24T09:20:42.904Z,63.20
2023-05-24T09:24:27.727Z,62.61
2023-05-24T09:28:11.848Z,62.83
2023-05-24T09:31:57.739Z,63.18
2023-05-24T09:35:43.808Z,61.88
2023-05-24T09:39:28.147Z,62.52
2023-05-24T09:43:11.287Z,62.83
2023-05-24T09:46:54.047Z,63.14
2023-05-24T09:50:36.900Z,63.95
2023-05-24T09:54:19.654Z,64.08
2023-05-24T09:58:08.398Z,63.96
2023-05-24T10:01:53.971Z,63.19
2023-05-24T10:05:37.272Z,64.52
2023-05-24T10:09:22.069Z,65.51
2023-05-24T10:13:06.205Z,66.09
2023-05-24T10:16:48.976Z,66.49
2023-05-24T10:20:32.723Z,68.17
2023-05-24T10:24:19.270Z,66.32
2023-05-24T10:28:04.417Z,67.60
2023-05-24T10:31:49.617Z,68.32
2023-05-24T10:35:34.113Z,66.55
2023-05-24T10:39:17.812Z,66.36
2023-05-24T10:43:00.985Z,64.46
2023-05-24T10:47:18.604Z,63.18
2023-05-24T10:51:02.945Z,61.99
2023-05-24T10:55:05.381Z,62.09
2023-05-24T10:59:00.286Z,62.51
2023-05-24T11:02:44.762Z,61.43
2023-05-24T11:06:47.378Z,62.25
2023-05-24T11:10:31.743Z,62.09
2023-05-24T11:14:16.001Z,61.34
2023-05-24T11:18:20.375Z,62.51
2023-05-24T11:22:04.860Z,59.30
2023-05-24T11:25:48.436Z,59.93
2023-05-24T11:29:31.414Z,60.93
2023-05-24T11:33:20.042Z,59.94
2023-05-24T11:37:06.037Z,58.45
2023-05-24T11:40:49.713Z,59.32
2023-05-24T11:44:33.839Z,60.17
2023-05-24T11:48:17.292Z,60.46
2023-05-24T11:52:03.434Z,59.53
2023-05-24T11:55:46.263Z,60.28
2023-05-24T11:59:30.202Z,59.10
2023-05-24T12:03:13.346Z,58.63
2023-05-24T12:06:56.466Z,57.89
2023-05-24T12:10:44.071Z,58.36
2023-05-24T12:14:31.106Z,59.11
2023-05-24T12:18:19.925Z,58.83
2023-05-24T12:22:06.158Z,59.04
2023-05-24T12:25:50.692Z,56.84
2023-05-24T12:29:36.956Z,56.92
2023-05-24T12:33:20.432Z,57.43
2023-05-24T12:37:04.803Z,57.77
2023-05-24T12:40:57.086Z,57.55
2023-05-24T12:44:54.327Z,58.70
2023-05-24T12:48:37.142Z,58.37
2023-05-24T12:52:20.358Z,59.53
2023-05-24T12:56:03.149Z,57.86
2023-05-24T12:59:46.079Z,58.77
2023-05-24T13:03:30.142Z,57.70
2023-05-24T13:07:12.888Z,58.34
2023-05-24T13:10:55.581Z,57.91
2023-05-24T13:14:38.389Z,55.73
2023-05-24T13:18:21.241Z,58.06
2023-05-24T13:22:05.388Z,56.28
2023-05-24T13:25:48.301Z,57.53
2023-05-24T13:29:39.296Z,57.02
2023-05-24T13:33:29.384Z,55.05
2023-05-24T13:37:13.556Z,55.71
2023-05-24T13:40:56.492Z,56.45
2023-05-24T13:44:39.651Z,52.33
2023-05-24T13:48:22.509Z,52.03
2023-05-24T13:52:05.687Z,54.89
2023-05-24T13:55:49.805Z,55.70
2023-05-24T13:59:32.513Z,52.20
2023-05-24T14:03:16.038Z,50.21
2023-05-24T14:06:58.768Z,53.36
2023-05-24T14:10:41.521Z,50.34
2023-05-24T14:18:11.708Z,49.33
2023-05-24T14:21:54.493Z,49.12
2023-05-24T14:25:37.306Z,51.14
2023-05-24T14:29:20.033Z,50.21
2023-05-24T14:33:06.261Z,53.99
2023-05-24T14:36:49.167Z,50.76
2023-05-24T14:40:31.972Z,48.62
2023-05-24T14:44:14.803Z,48.33
2023-05-24T14:47:57.962Z,49.21
2023-05-24T14:51:42.144Z,51.37
2023-05-24T14:55:24.966Z,51.23
2023-05-24T14:59:07.754Z,49.95
2023-05-24T15:02:50.526Z,46.77
2023-05-24T15:06:35.232Z,44.79
2023-05-24T15:10:19.440Z,45.57
2023-05-24T15:14:02.407Z,44.29
2023-05-24T15:17:45.152Z,44.33
2023-05-24T15:21:27.967Z,44.91
2023-05-24T15:25:11.333Z,45.14
2023-05-24T15:28:55.525Z,44.13
2023-05-24T15:32:38.308Z,42.75
2023-05-24T15:36:21.089Z,39.27
2023-05-24T15:40:04.441Z,34.33
2023-05-24T15:43:47.267Z,31.51
2023-05-24T15:47:36.433Z,28.25
2023-05-24T15:51:50.914Z,26.97
2023-05-24T15:55:22.467Z,26.96
2023-05-24T15:59:05.183Z,26.37
2023-05-24T16:02:51.545Z,26.96
2023-05-24T16:06:34.381Z,27.83
2023-05-24T16:10:18.380Z,27.40
2023-05-24T16:14:01.031Z,26.34
2023-05-24T16:17:44.720Z,26.81
2023-05-24T16:21:28.897Z,25.23
2023-05-24T16:25:11.625Z,27.05
2023-05-24T16:28:55.056Z,26.97
2023-05-24T16:32:37.781Z,26.86
2023-05-24T16:36:22.607Z,28.30
2023-05-24T16:40:08.251Z,28.70
2023-05-24T16:43:50.930Z,29.18
2023-05-24T16:47:33.731Z,31.48
2023-05-24T16:51:16.516Z,32.00
2023-05-24T16:54:59.973Z,32.88
2023-05-24T16:58:44.175Z,34.35
2023-05-24T17:02:27.038Z,35.00
2023-05-24T17:06:09.737Z,36.19
2023-05-24T17:09:52.820Z,37.67
2023-05-24T17:13:36.142Z,38.66
2023-05-24T17:17:20.335Z,39.23
2023-05-24T17:21:04.819Z,40.41
2023-05-24T17:24:47.537Z,41.38
2023-05-24T17:28:31.104Z,42.17
2023-05-24T17:32:15.416Z,42.60
2023-05-24T17:36:02.629Z,42.37
2023-05-24T17:39:45.446Z,43.48
2023-05-24T17:43:31.822Z,43.59
2023-05-24T17:47:14.830Z,44.03
2023-05-24T17:50:59.144Z,44.71
2023-05-24T17:54:41.929Z,45.26
2023-05-24T17:58:24.871Z,46.18
2023-05-24T18:02:07.612Z,50.96
2023-05-24T18:05:50.317Z,47.68
2023-05-24T18:09:34.483Z,46.61
2023-05-24T18:13:17.256Z,46.96
2023-05-24T18:17:00.168Z,48.29
2023-05-24T18:20:43.042Z,49.11
2023-05-24T18:24:25.810Z,49.89
2023-05-24T18:28:09.950Z,50.07
2023-05-24T18:31:52.821Z,50.09
2023-05-24T18:35:35.688Z,49.85
2023-05-24T18:39:19.067Z,50.64
2023-05-24T18:43:01.817Z,50.70
2023-05-24T18:46:45.907Z,49.29
2023-05-24T18:50:28.657Z,49.00
2023-05-24T18:54:13.020Z,48.19
2023-05-24T18:57:56.008Z,48.47
2023-05-24T19:01:38.785Z,48.17
2023-05-24T19:05:23.066Z,48.66
2023-05-24T19:09:05.832Z,50.27
2023-05-24T19:12:48.613Z,50.22
2023-05-24T19:16:31.362Z,49.62
2023-05-24T19:20:14.094Z,52.26
2023-05-24T19:23:58.443Z,54.24
2023-05-24T19:27:54.829Z,55.61
2023-05-24T19:31:41.722Z,56.67
2023-05-24T19:35:24.565Z,57.87
2023-05-24T19:39:08.765Z,57.76
2023-05-24T19:42:53.366Z,58.29
2023-05-24T19:46:36.970Z,58.63
2023-05-24T19:50:19.885Z,58.65
2023-05-24T19:54:02.668Z,59.28
2023-05-24T19:57:46.727Z,59.69
2023-05-24T20:01:29.428Z,59.63
2023-05-24T20:05:12.578Z,60.43
2023-05-24T20:08:57.792Z,60.18
2023-05-24T20:12:41.179Z,60.60
2023-05-24T20:16:25.472Z,60.87
2023-05-24T20:20:09.391Z,61.65
2023-05-24T20:23:57.563Z,63.53
2023-05-24T20:27:42.290Z,63.00
2023-05-24T20:31:26.486Z,63.05
2023-05-24T20:35:10.237Z,62.09
2023-05-24T20:38:53.031Z,62.63
2023-05-24T20:42:36.157Z,61.88
2023-05-24T20:46:19.007Z,62.04
2023-05-24T20:50:04.022Z,60.83
2023-05-24T20:53:49.302Z,61.07
2023-05-24T20:57:32.998Z,60.94
2023-05-24T21:01:16.936Z,60.45
2023-05-24T21:05:00.453Z,61.05
2023-05-24T21:08:45.135Z,60.96
2023-05-24T21:12:28.086Z,60.58
2023-05-24T21:16:11.057Z,61.04
2023-05-24T21:19:53.870Z,62.33
2023-05-24T21:23:36.787Z,62.60
2023-05-24T21:27:21.314Z,61.17
2023-05-24T21:31:05.322Z,60.99
2023-05-24T21:34:48.475Z,60.74
2023-05-24T21:38:31.187Z,61.28
2023-05-24T21:42:13.901Z,61.44
2023-05-24T21:45:57.957Z,60.78
2023-05-24T21:49:40.870Z,60.46
2023-05-24T21:53:23.608Z,60.35
2023-05-24T21:57:07.221Z,59.47
2023-05-24T22:00:50.981Z,59.35
2023-05-24T22:04:35.110Z,58.35
2023-05-24T22:08:17.845Z,58.67
2023-05-24T22:12:00.734Z,58.51
2023-05-24T22:15:43.659Z,58.83
2023-05-24T22:19:39.905Z,58.97
2023-05-24T22:23:24.637Z,58.08
2023-05-24T22:27:09.659Z,57.12
2023-05-24T22:30:53.753Z,54.67
2023-05-24T22:34:36.767Z,54.38
2023-05-24T22:38:19.540Z,54.59
2023-05-24T22:42:03.842Z,53.86
2023-05-24T22:45:46.870Z,53.65
2023-05-24T22:49:34.073Z,53.69
2023-05-24T22:53:17.998Z,54.17
2023-05-24T22:57:00.946Z,54.22
2023-05-24T23:00:45.061Z,54.20
2023-05-24T23:04:28.867Z,53.73
2023-05-24T23:08:13.082Z,53.68
2023-05-24T23:11:58.184Z,53.77
2023-05-24T23:15:41.474Z,54.13
2023-05-24T23:19:25.729Z,54.42
2023-05-24T23:23:11.254Z,54.53
2023-05-24T23:26:55.929Z,54.76
2023-05-24T23:30:38.825Z,54.87
2023-05-24T23:34:21.659Z,54.37
2023-05-24T23:38:05.753Z,54.70
2023-05-24T23:41:48.479Z,54.65
2023-05-24T23:45:31.501Z,54.68
2023-05-24T23:49:16.491Z,54.94
2023-05-24T23:52:59.851Z,55.65
2023-05-24T23:56:44.060Z,55.69
